Time;durP1;ratioP1;P1;durP2;ratioP2;P2;SDS_P1;SDS_P2;PMS_P1;PMS_P2;Temp;Humidity;BMP_temperature;BMP_pressure;BME280_temperature;BME280_humidity;BME280_pressure;Samples;Min_cycle;Max_cycle;Signal;HPM_P1;HPM_P2
2023/12/12 00:02:05;;;;;;;31.58;25.92;;;19.20;50.50;;;;;;5014482;28;20200;-84
2023/12/12 00:04:34;;;;;;;32.55;27.45;;;19.10;50.70;;;;;;5017383;28;20204;-84
2023/12/12 00:07:01;;;;;;;31.80;25.80;;;19.10;50.90;;;;;;5015068;28;20264;-84
2023/12/12 00:09:28;;;;;;;31.88;26.20;;;19.00;50.50;;;;;;5015172;28;20224;-83
2023/12/12 00:11:55;;;;;;;30.10;24.80;;;19.00;50.60;;;;;;5016019;28;20220;-84
2023/12/12 00:14:22;;;;;;;27.85;23.65;;;19.00;50.80;;;;;;5014279;28;20217;-84
2023/12/12 00:16:49;;;;;;;28.63;23.67;;;19.00;50.50;;;;;;5014337;28;20311;-83
2023/12/12 00:19:15;;;;;;;29.77;24.25;;;19.00;50.50;;;;;;5014790;28;20201;-83
2023/12/12 00:21:44;;;;;;;26.83;23.08;;;19.00;50.80;;;;;;5014252;28;20197;-83
2023/12/12 00:24:11;;;;;;;25.70;21.48;;;19.00;50.60;;;;;;5014424;28;20224;-83
2023/12/12 00:26:38;;;;;;;26.05;22.30;;;19.00;50.70;;;;;;5014865;28;20216;-83
2023/12/12 00:29:05;;;;;;;25.20;21.42;;;19.00;50.90;;;;;;5014794;28;20208;-83
2023/12/12 00:31:32;;;;;;;27.38;21.63;;;18.90;50.60;;;;;;5014944;28;20201;-84
2023/12/12 00:33:59;;;;;;;24.88;21.48;;;18.90;50.50;;;;;;5013891;28;20231;-83
2023/12/12 00:36:26;;;;;;;25.55;21.08;;;18.90;50.50;;;;;;5013772;28;20204;-83
2023/12/12 00:38:54;;;;;;;25.30;20.65;;;18.90;50.50;;;;;;5013903;28;20208;-83
2023/12/12 00:41:21;;;;;;;25.52;20.77;;;18.80;50.70;;;;;;5013574;28;20204;-83
2023/12/12 00:43:48;;;;;;;25.55;20.42;;;18.90;50.70;;;;;;5013910;28;20212;-83
2023/12/12 00:46:15;;;;;;;25.15;20.00;;;18.80;50.60;;;;;;5014680;28;20217;-83
2023/12/12 00:48:42;;;;;;;22.05;19.48;;;18.80;50.70;;;;;;5013671;28;20197;-83
2023/12/12 00:51:09;;;;;;;22.77;18.77;;;18.80;50.90;;;;;;5014344;28;20566;-83
2023/12/12 00:53:36;;;;;;;22.63;17.67;;;18.80;50.70;;;;;;5013774;28;20255;-83
2023/12/12 00:56:06;;;;;;;22.92;18.27;;;18.80;50.50;;;;;;5013368;28;20223;-83
2023/12/12 00:58:33;;;;;;;21.95;17.88;;;18.70;50.70;;;;;;5013760;28;20197;-83
2023/12/12 01:01:01;;;;;;;19.08;17.08;;;18.80;50.90;;;;;;4997455;28;20682;-83
2023/12/12 01:03:28;;;;;;;19.48;16.40;;;18.70;50.70;;;;;;5013577;28;20205;-83
2023/12/12 01:05:55;;;;;;;19.13;16.27;;;18.70;50.60;;;;;;5013692;28;20239;-83
2023/12/12 01:08:23;;;;;;;17.83;15.57;;;18.70;51.20;;;;;;5014382;28;20283;-83
2023/12/12 01:10:49;;;;;;;21.48;16.73;;;18.70;50.60;;;;;;5013685;28;20188;-83
2023/12/12 01:13:20;;;;;;;18.58;15.48;;;18.70;50.60;;;;;;5021844;28;20262;-83
2023/12/12 01:15:47;;;;;;;19.67;15.88;;;18.70;50.50;;;;;;5059662;23;20252;-80
2023/12/12 01:18:14;;;;;;;17.85;15.05;;;18.60;50.50;;;;;;5014486;28;20215;-80
2023/12/12 01:20:41;;;;;;;19.67;15.63;;;18.60;50.60;;;;;;5016952;28;20258;-80
2023/12/12 01:23:08;;;;;;;17.67;15.23;;;18.70;50.60;;;;;;5017567;28;20631;-79
2023/12/12 01:25:35;;;;;;;17.90;15.15;;;18.60;50.50;;;;;;5016655;28;20197;-79
2023/12/12 01:28:02;;;;;;;17.15;13.52;;;18.60;50.50;;;;;;5016441;28;20291;-78
2023/12/12 01:30:31;;;;;;;18.20;14.68;;;18.60;50.50;;;;;;5016653;28;20197;-79
2023/12/12 01:32:58;;;;;;;16.50;14.27;;;18.60;50.70;;;;;;5016493;28;20675;-79
2023/12/12 01:35:25;;;;;;;17.45;13.88;;;18.60;50.70;;;;;;5016668;28;20193;-79
2023/12/12 01:37:52;;;;;;;16.30;13.98;;;18.60;50.60;;;;;;5016580;28;20200;-79
2023/12/12 01:40:19;;;;;;;15.70;13.60;;;18.60;50.50;;;;;;5016467;28;20606;-79
2023/12/12 01:42:46;;;;;;;15.95;13.70;;;18.60;50.70;;;;;;5016541;28;20284;-79
2023/12/12 01:45:13;;;;;;;15.93;13.25;;;18.50;50.50;;;;;;5016308;28;20200;-79
2023/12/12 01:47:42;;;;;;;14.65;12.95;;;18.60;50.90;;;;;;5016342;28;20587;-79
2023/12/12 01:50:09;;;;;;;15.35;12.98;;;18.50;50.50;;;;;;5016521;28;20196;-79
2023/12/12 01:52:36;;;;;;;16.10;12.98;;;18.50;50.20;;;;;;5016152;28;20227;-79
2023/12/12 01:55:03;;;;;;;13.95;12.05;;;18.50;50.50;;;;;;5026703;28;20231;-79
2023/12/12 01:57:31;;;;;;;14.45;12.18;;;18.50;50.50;;;;;;5035287;28;20221;-79
2023/12/12 01:59:58;;;;;;;14.88;12.15;;;18.50;50.50;;;;;;5029850;28;20204;-79
2023/12/12 02:02:25;;;;;;;14.57;11.32;;;18.50;50.50;;;;;;5022664;28;20207;-79
2023/12/12 02:04:53;;;;;;;13.18;11.48;;;18.50;50.70;;;;;;5021048;28;20569;-79
2023/12/12 02:07:21;;;;;;;11.68;10.48;;;18.50;50.50;;;;;;5017972;28;20224;-79
2023/12/12 02:09:48;;;;;;;14.80;11.85;;;18.50;50.60;;;;;;5015816;28;20570;-79
2023/12/12 02:12:15;;;;;;;12.48;11.05;;;18.50;50.50;;;;;;4999747;28;20578;-79
2023/12/12 02:14:43;;;;;;;12.50;10.27;;;18.50;50.70;;;;;;5016626;28;20227;-79
2023/12/12 02:17:10;;;;;;;12.48;10.77;;;18.50;50.70;;;;;;5015726;28;20225;-79
2023/12/12 02:19:37;;;;;;;13.00;10.27;;;18.40;50.50;;;;;;5016482;28;20205;-79
2023/12/12 02:22:05;;;;;;;12.52;10.70;;;18.40;50.60;;;;;;5016120;28;20763;-79
2023/12/12 02:24:33;;;;;;;10.63;9.52;;;18.40;50.60;;;;;;4999787;28;20675;-79
2023/12/12 02:27:00;;;;;;;10.15;9.05;;;18.40;50.50;;;;;;5016023;28;20319;-79
2023/12/12 02:29:27;;;;;;;11.60;9.43;;;18.40;50.50;;;;;;5015376;28;20203;-79
2023/12/12 02:31:54;;;;;;;12.13;10.45;;;18.40;50.60;;;;;;5015502;28;20197;-79
2023/12/12 02:34:21;;;;;;;11.98;9.88;;;18.40;50.70;;;;;;5015069;28;20212;-79
2023/12/12 02:36:48;;;;;;;9.70;8.73;;;18.40;50.60;;;;;;5015256;28;20271;-79
2023/12/12 02:39:17;;;;;;;10.05;8.75;;;18.30;50.50;;;;;;5015381;28;20259;-79
2023/12/12 02:41:43;;;;;;;10.40;8.77;;;18.30;50.50;;;;;;5015313;28;20228;-79
2023/12/12 02:44:10;;;;;;;9.75;8.68;;;18.40;50.60;;;;;;5015343;28;20197;-79
2023/12/12 02:46:39;;;;;;;11.55;8.57;;;18.30;50.40;;;;;;4999967;28;20225;-79
2023/12/12 02:49:06;;;;;;;9.50;8.43;;;18.40;50.70;;;;;;5018014;28;20211;-79
2023/12/12 02:51:34;;;;;;;8.77;7.68;;;18.30;50.50;;;;;;5001421;28;20205;-80
2023/12/12 02:54:01;;;;;;;10.27;8.75;;;18.30;50.50;;;;;;5016385;28;20388;-80
2023/12/12 02:56:32;;;;;;;9.68;8.25;;;18.30;50.50;;;;;;5034668;28;20264;-80
2023/12/12 02:58:59;;;;;;;10.63;8.30;;;18.30;50.60;;;;;;5040608;28;20233;-78
2023/12/12 03:01:26;;;;;;;9.20;8.23;;;18.30;50.60;;;;;;5033158;28;20189;-78
2023/12/12 03:03:53;;;;;;;10.55;8.40;;;18.30;50.70;;;;;;5016466;28;20276;-79
2023/12/12 03:06:21;;;;;;;9.23;7.57;;;18.20;50.60;;;;;;5014944;28;20217;-79
2023/12/12 03:08:48;;;;;;;8.75;7.57;;;18.20;50.60;;;;;;5014949;28;20675;-79
2023/12/12 03:11:15;;;;;;;9.57;7.72;;;18.20;50.50;;;;;;5015795;28;20632;-79
2023/12/12 03:13:43;;;;;;;8.90;7.95;;;18.20;50.60;;;;;;5015360;28;20571;-79
2023/12/12 03:16:10;;;;;;;8.25;7.45;;;18.20;50.60;;;;;;5015141;28;20319;-79
2023/12/12 03:18:37;;;;;;;8.35;7.05;;;18.20;50.80;;;;;;5014701;28;20193;-79
2023/12/12 03:21:05;;;;;;;8.20;7.10;;;18.10;50.50;;;;;;4998693;28;20200;-79
2023/12/12 03:23:32;;;;;;;9.05;7.75;;;18.20;50.70;;;;;;5014506;28;20201;-79
2023/12/12 03:26:07;;;;;;;7.60;6.57;;;18.20;50.70;;;;;;5014740;28;20217;-79
2023/12/12 03:28:34;;;;;;;8.68;7.18;;;18.10;50.70;;;;;;5014832;28;20247;-79
2023/12/12 03:31:03;;;;;;;7.93;6.97;;;18.10;50.60;;;;;;5014898;28;20203;-79
2023/12/12 03:33:29;;;;;;;7.97;7.03;;;18.10;50.50;;;;;;5016413;28;20192;-79
2023/12/12 03:35:57;;;;;;;9.10;6.82;;;18.10;50.60;;;;;;5014669;28;20303;-79
2023/12/12 03:38:24;;;;;;;7.97;6.70;;;18.10;50.50;;;;;;5014854;28;20288;-79
2023/12/12 03:40:51;;;;;;;6.93;6.22;;;18.10;50.60;;;;;;5013889;28;20228;-79
2023/12/12 03:43:18;;;;;;;7.72;6.93;;;18.10;50.70;;;;;;5014907;28;20577;-79
2023/12/12 03:45:45;;;;;;;7.15;6.45;;;18.10;50.50;;;;;;5014683;28;20213;-79
2023/12/12 03:48:13;;;;;;;7.07;6.25;;;18.10;50.60;;;;;;5014462;28;20238;-79
2023/12/12 03:50:41;;;;;;;7.25;6.20;;;18.00;50.40;;;;;;5014391;28;20260;-79
2023/12/12 03:53:08;;;;;;;6.72;5.90;;;18.00;50.50;;;;;;5014416;28;20597;-79
2023/12/12 03:55:35;;;;;;;7.22;6.10;;;18.00;50.50;;;;;;5014080;28;20220;-79
2023/12/12 03:58:01;;;;;;;7.18;5.90;;;18.00;50.60;;;;;;5014607;28;20200;-79
2023/12/12 04:00:29;;;;;;;7.45;6.68;;;18.00;50.40;;;;;;5014258;28;20197;-79
2023/12/12 04:02:55;;;;;;;6.43;5.65;;;18.00;50.70;;;;;;5014181;28;20243;-79
2023/12/12 04:05:24;;;;;;;6.95;6.13;;;18.00;50.60;;;;;;5013957;28;20203;-79
2023/12/12 04:07:51;;;;;;;6.40;5.75;;;18.00;50.60;;;;;;5014094;28;20203;-79
2023/12/12 04:10:18;;;;;;;6.35;5.65;;;18.00;50.40;;;;;;5013858;28;20205;-79
2023/12/12 04:12:45;;;;;;;5.53;4.93;;;17.90;50.50;;;;;;4997546;28;20571;-79
2023/12/12 04:15:12;;;;;;;5.55;5.00;;;17.90;50.70;;;;;;5013891;28;20296;-79
2023/12/12 04:17:39;;;;;;;5.35;4.85;;;17.90;50.90;;;;;;5013760;28;20314;-79
2023/12/12 04:20:07;;;;;;;5.65;5.05;;;17.90;50.70;;;;;;5013739;28;20706;-79
2023/12/12 04:22:35;;;;;;;6.07;4.53;;;17.80;50.70;;;;;;5013560;28;20219;-79
2023/12/12 04:25:02;;;;;;;5.63;5.13;;;17.80;50.70;;;;;;4997239;28;20201;-79
2023/12/12 04:27:29;;;;;;;5.55;5.00;;;17.80;50.60;;;;;;4997195;28;20213;-79
2023/12/12 04:29:56;;;;;;;5.88;5.00;;;17.80;50.70;;;;;;5013426;28;20263;-79
2023/12/12 04:32:23;;;;;;;5.22;4.72;;;17.70;50.70;;;;;;5013271;28;20200;-79
2023/12/12 04:34:50;;;;;;;6.50;5.28;;;17.80;50.90;;;;;;4997794;28;20568;-79
2023/12/12 04:37:17;;;;;;;5.53;4.88;;;17.80;50.70;;;;;;5013446;28;20212;-79
2023/12/12 04:39:46;;;;;;;5.35;4.75;;;17.80;50.70;;;;;;5014100;28;20200;-79
2023/12/12 04:42:13;;;;;;;5.70;4.75;;;17.80;50.60;;;;;;4999643;28;20196;-79
2023/12/12 04:44:42;;;;;;;5.82;4.85;;;17.90;50.70;;;;;;5033357;28;20240;-79
2023/12/12 04:47:09;;;;;;;5.53;4.75;;;17.90;50.40;;;;;;5014785;28;20220;-79
2023/12/12 04:49:36;;;;;;;5.22;4.72;;;17.90;50.50;;;;;;5027572;28;20223;-79
2023/12/12 04:52:04;;;;;;;5.40;4.78;;;17.90;50.50;;;;;;5004979;28;20208;-79
2023/12/12 04:54:31;;;;;;;5.13;4.63;;;17.90;50.40;;;;;;4987579;28;20217;-79
2023/12/12 04:57:00;;;;;;;4.63;4.20;;;18.00;50.40;;;;;;5018604;28;20220;-79
2023/12/12 04:59:27;;;;;;;4.78;3.83;;;18.00;50.40;;;;;;5016897;28;20226;-79
2023/12/12 05:01:54;;;;;;;5.70;4.60;;;18.00;50.30;;;;;;5016407;28;20205;-79
2023/12/12 05:04:21;;;;;;;4.60;4.07;;;18.00;50.20;;;;;;4999807;28;20201;-79
2023/12/12 05:06:48;;;;;;;5.20;4.15;;;18.00;50.00;;;;;;5015327;28;20220;-79
2023/12/12 05:09:17;;;;;;;5.07;4.18;;;18.00;50.10;;;;;;5013519;28;20204;-79
2023/12/12 05:11:44;;;;;;;4.93;4.18;;;18.00;50.20;;;;;;5014127;28;20197;-79
2023/12/12 05:14:14;;;;;;;4.13;3.72;;;18.00;50.00;;;;;;5012906;28;20193;-79
2023/12/12 05:16:40;;;;;;;4.88;3.80;;;18.00;49.90;;;;;;4996998;28;20637;-79
2023/12/12 05:19:08;;;;;;;5.43;3.90;;;18.00;50.00;;;;;;5013488;28;20636;-79
2023/12/12 05:21:34;;;;;;;4.70;4.15;;;18.00;50.00;;;;;;5013731;28;20193;-79
2023/12/12 05:24:02;;;;;;;4.07;3.42;;;18.00;50.00;;;;;;4996423;28;20695;-79
2023/12/12 05:26:29;;;;;;;4.28;3.88;;;17.90;50.10;;;;;;5013085;28;20714;-79
2023/12/12 05:28:56;;;;;;;5.72;3.40;;;17.90;50.20;;;;;;5013039;28;20208;-79
2023/12/12 05:31:24;;;;;;;5.13;3.60;;;18.00;50.30;;;;;;5012555;28;20196;-79
2023/12/12 05:33:52;;;;;;;4.10;3.70;;;18.00;50.10;;;;;;5012505;28;20293;-79
2023/12/12 05:36:18;;;;;;;3.50;3.20;;;18.00;50.20;;;;;;5012593;28;20266;-79
2023/12/12 05:38:45;;;;;;;3.95;3.53;;;18.10;50.20;;;;;;5012910;28;20724;-79
2023/12/12 05:41:12;;;;;;;4.32;3.47;;;18.10;50.00;;;;;;5012495;28;20207;-79
2023/12/12 05:43:39;;;;;;;4.57;3.50;;;18.20;49.80;;;;;;5013473;28;20211;-79
2023/12/12 05:46:06;;;;;;;3.50;3.20;;;18.20;49.80;;;;;;5012451;28;20271;-79
2023/12/12 05:48:35;;;;;;;3.47;3.17;;;18.20;49.80;;;;;;5012472;28;20201;-79
2023/12/12 05:51:02;;;;;;;3.67;3.28;;;18.20;49.80;;;;;;5012453;28;20205;-79
2023/12/12 05:53:29;;;;;;;4.65;3.47;;;18.20;49.70;;;;;;4980022;28;20228;-79
2023/12/12 05:55:56;;;;;;;4.15;3.25;;;18.20;49.50;;;;;;5018233;28;20248;-80
2023/12/12 05:58:22;;;;;;;4.00;3.60;;;18.20;49.50;;;;;;5019388;28;20232;-80
2023/12/12 06:00:51;;;;;;;3.38;3.08;;;18.20;49.30;;;;;;5014511;28;20197;-80
2023/12/12 06:03:18;;;;;;;3.42;3.13;;;18.30;49.60;;;;;;5012951;28;20185;-80
2023/12/12 06:05:47;;;;;;;5.55;3.30;;;18.30;49.40;;;;;;5016544;28;20236;-80
2023/12/12 06:08:15;;;;;;;3.80;3.30;;;18.30;50.10;;;;;;5016574;28;20212;-80
2023/12/12 06:10:42;;;;;;;3.40;3.05;;;18.30;49.40;;;;;;5000257;28;20201;-80
2023/12/12 06:13:09;;;;;;;3.33;2.97;;;18.30;49.20;;;;;;5017207;28;20201;-80
2023/12/12 06:15:36;;;;;;;3.80;3.10;;;18.30;49.40;;;;;;5016886;28;20214;-80
2023/12/12 06:18:03;;;;;;;3.33;3.03;;;18.30;49.40;;;;;;5016682;28;20189;-80
2023/12/12 06:20:32;;;;;;;3.35;2.92;;;18.30;49.50;;;;;;5016168;28;20201;-80
2023/12/12 06:23:01;;;;;;;3.22;2.85;;;18.30;49.10;;;;;;5016403;28;20200;-80
2023/12/12 06:25:28;;;;;;;2.90;2.70;;;18.40;49.20;;;;;;5000476;28;20197;-80
2023/12/12 06:27:56;;;;;;;3.90;2.70;;;18.30;49.00;;;;;;4999413;28;20204;-80
2023/12/12 06:30:23;;;;;;;3.70;3.10;;;18.40;49.20;;;;;;5016544;28;20263;-80
2023/12/12 06:32:50;;;;;;;3.97;2.92;;;18.40;49.20;;;;;;5003723;28;20201;-80
2023/12/12 06:35:17;;;;;;;3.08;2.78;;;18.40;49.10;;;;;;5018496;28;20221;-81
2023/12/12 06:37:44;;;;;;;3.22;2.38;;;18.40;49.10;;;;;;5012075;28;20200;-81
2023/12/12 06:40:14;;;;;;;3.35;2.45;;;18.40;49.00;;;;;;5040922;28;20169;-81
2023/12/12 06:42:41;;;;;;;2.42;2.22;;;18.40;49.60;;;;;;5038576;28;20200;-80
2023/12/12 06:45:10;;;;;;;3.15;2.80;;;18.50;49.00;;;;;;4999245;28;20197;-81
2023/12/12 06:47:37;;;;;;;3.30;2.55;;;18.50;49.00;;;;;;5015177;28;20315;-81
2023/12/12 06:50:04;;;;;;;3.28;2.50;;;18.50;49.00;;;;;;5015655;28;20223;-81
2023/12/12 06:52:32;;;;;;;2.80;2.60;;;18.50;49.00;;;;;;5015357;28;20670;-81
2023/12/12 06:54:59;;;;;;;2.92;2.63;;;18.50;49.00;;;;;;5015837;28;20216;-81
2023/12/12 06:57:27;;;;;;;2.53;2.30;;;18.40;49.00;;;;;;5017594;28;20287;-81
2023/12/12 06:59:54;;;;;;;3.70;2.67;;;18.50;48.90;;;;;;5017478;28;20211;-81
2023/12/12 07:02:21;;;;;;;4.10;2.58;;;18.50;49.00;;;;;;5017180;28;20200;-81
2023/12/12 07:04:48;;;;;;;2.45;2.25;;;18.50;49.00;;;;;;5017769;28;20267;-81
2023/12/12 07:07:15;;;;;;;3.88;2.58;;;18.50;49.00;;;;;;5017585;28;20236;-80
2023/12/12 07:09:42;;;;;;;2.75;2.20;;;18.50;49.10;;;;;;5016986;28;20196;-80
2023/12/12 07:12:09;;;;;;;2.88;2.13;;;18.50;49.00;;;;;;5016497;28;20251;-80
2023/12/12 07:14:38;;;;;;;2.15;1.95;;;18.50;48.80;;;;;;5014469;28;20200;-81
2023/12/12 07:17:05;;;;;;;2.97;2.42;;;18.60;48.80;;;;;;5054897;23;20229;-80
2023/12/12 07:19:32;;;;;;;3.40;2.30;;;18.60;48.50;;;;;;5015221;28;20204;-80
2023/12/12 07:21:59;;;;;;;2.50;2.30;;;18.60;48.50;;;;;;5015253;28;20211;-80
2023/12/12 07:24:26;;;;;;;2.47;2.20;;;18.60;48.50;;;;;;5014845;28;20291;-80
2023/12/12 07:26:53;;;;;;;2.20;2.00;;;18.60;48.40;;;;;;5014527;28;20224;-80
2023/12/12 07:29:20;;;;;;;2.53;2.28;;;18.70;48.40;;;;;;4998460;28;20728;-80
2023/12/12 07:31:48;;;;;;;2.83;2.47;;;18.70;48.50;;;;;;5014531;28;20204;-80
2023/12/12 07:34:15;;;;;;;2.83;2.20;;;18.70;48.60;;;;;;5014479;28;20208;-81
2023/12/12 07:36:42;;;;;;;2.45;2.25;;;18.70;48.30;;;;;;5014637;28;20228;-81
2023/12/12 07:39:09;;;;;;;2.42;2.17;;;18.70;48.20;;;;;;5014838;28;20239;-81
2023/12/12 07:41:37;;;;;;;2.50;2.20;;;18.70;48.30;;;;;;5015135;28;20686;-80
2023/12/12 07:44:04;;;;;;;2.70;2.20;;;18.70;48.70;;;;;;5015095;28;20203;-80
2023/12/12 07:46:36;;;;;;;3.08;2.10;;;18.70;48.50;;;;;;5014902;28;20223;-80
2023/12/12 07:49:05;;;;;;;2.15;1.85;;;18.70;48.30;;;;;;5014370;28;20205;-80
2023/12/12 07:51:32;;;;;;;2.40;2.05;;;18.60;48.80;;;;;;5013831;28;20205;-81
2023/12/12 07:53:59;;;;;;;2.47;2.15;;;18.60;48.30;;;;;;5014115;28;20224;-80
2023/12/12 07:56:26;;;;;;;2.05;1.90;;;18.60;48.70;;;;;;5013743;28;20224;-79
2023/12/12 07:58:53;;;;;;;3.35;2.20;;;18.70;48.90;;;;;;5014011;28;20602;-80
2023/12/12 08:01:20;;;;;;;4.50;2.22;;;18.80;49.10;;;;;;5014041;28;20196;-79
2023/12/12 08:03:47;;;;;;;2.38;2.15;;;18.80;48.70;;;;;;4997504;28;20201;-78
2023/12/12 08:06:15;;;;;;;3.10;2.10;;;18.70;49.20;;;;;;5014092;28;20205;-78
2023/12/12 08:08:42;;;;;;;3.85;2.05;;;18.80;49.00;;;;;;5013995;28;20333;-78
2023/12/12 08:11:13;;;;;;;4.25;1.98;;;18.70;49.20;;;;;;5013865;28;20201;-79
2023/12/12 08:13:39;;;;;;;2.75;1.95;;;18.80;49.80;;;;;;5014582;28;20262;-78
2023/12/12 08:16:07;;;;;;;2.95;2.15;;;18.80;50.20;;;;;;5014356;28;20229;-79
2023/12/12 08:18:37;;;;;;;2.42;1.92;;;18.80;50.30;;;;;;5013682;28;20204;-78
2023/12/12 08:21:06;;;;;;;2.30;1.98;;;18.80;50.50;;;;;;5013702;28;20572;-78
2023/12/12 08:23:34;;;;;;;3.75;2.00;;;18.80;50.70;;;;;;5013341;28;20209;-79
2023/12/12 08:26:02;;;;;;;2.60;1.90;;;18.80;50.70;;;;;;5013417;28;20223;-78
2023/12/12 08:28:29;;;;;;;2.40;2.00;;;18.90;50.30;;;;;;5013192;28;20205;-78
2023/12/12 08:30:56;;;;;;;2.63;2.00;;;19.00;50.00;;;;;;4997221;28;20250;-78
2023/12/12 08:33:23;;;;;;;2.10;1.90;;;19.00;49.90;;;;;;5013366;28;20196;-78
2023/12/12 08:35:50;;;;;;;3.00;2.10;;;18.90;49.80;;;;;;5013526;28;20307;-78
2023/12/12 08:38:17;;;;;;;2.60;2.03;;;19.10;50.00;;;;;;5018645;28;20204;-78
2023/12/12 08:40:45;;;;;;;2.53;1.92;;;19.10;50.20;;;;;;5002798;28;20207;-78
2023/12/12 08:43:13;;;;;;;2.08;1.80;;;19.10;49.90;;;;;;5022324;28;20239;-79
2023/12/12 08:45:39;;;;;;;2.25;1.90;;;19.10;49.90;;;;;;5019183;28;20207;-79
2023/12/12 08:48:07;;;;;;;2.22;2.00;;;19.20;50.00;;;;;;5016586;28;20675;-79
2023/12/12 08:50:34;;;;;;;2.47;1.90;;;19.20;49.90;;;;;;5015149;28;20275;-79
2023/12/12 08:53:02;;;;;;;2.60;2.38;;;19.30;49.70;;;;;;5013813;28;20659;-78
2023/12/12 08:55:28;;;;;;;2.88;2.00;;;19.30;49.60;;;;;;4997611;28;20316;-78
2023/12/12 08:57:57;;;;;;;2.22;1.80;;;19.30;49.40;;;;;;5014272;28;20660;-78
2023/12/12 09:00:24;;;;;;;3.65;2.10;;;19.30;50.00;;;;;;5014773;28;20201;-78
2023/12/12 09:02:51;;;;;;;4.03;2.03;;;19.30;50.00;;;;;;5013290;28;20292;-79
2023/12/12 09:05:18;;;;;;;1.80;1.70;;;19.30;50.00;;;;;;5013370;28;20207;-78
2023/12/12 09:07:45;;;;;;;2.08;1.83;;;19.40;50.50;;;;;;5013455;28;20220;-80
2023/12/12 09:10:12;;;;;;;3.30;2.10;;;19.30;50.00;;;;;;5015283;28;20212;-80
2023/12/12 09:12:39;;;;;;;3.25;2.00;;;19.30;49.60;;;;;;5013881;28;20204;-78
2023/12/12 09:15:07;;;;;;;3.00;1.70;;;19.30;49.10;;;;;;5013677;28;20255;-80
2023/12/12 09:17:34;;;;;;;4.15;2.00;;;19.30;49.20;;;;;;5013395;28;20236;-79
2023/12/12 09:20:02;;;;;;;2.53;1.83;;;19.30;49.20;;;;;;5013366;28;20324;-78
2023/12/12 09:22:29;;;;;;;2.50;1.90;;;19.30;49.10;;;;;;5013529;28;20197;-80
2023/12/12 09:24:56;;;;;;;3.35;1.92;;;19.30;49.00;;;;;;5014569;28;20216;-79
2023/12/12 09:27:23;;;;;;;2.80;2.25;;;19.30;49.10;;;;;;5015094;28;20589;-79
2023/12/12 09:29:49;;;;;;;2.63;2.00;;;19.30;49.00;;;;;;5014292;28;20195;-79
2023/12/12 09:32:18;;;;;;;3.33;2.05;;;19.40;49.00;;;;;;5014213;28;20197;-81
2023/12/12 09:34:45;;;;;;;2.90;1.80;;;19.40;48.90;;;;;;5014385;28;20284;-81
2023/12/12 09:37:12;;;;;;;3.55;2.17;;;19.30;48.70;;;;;;5012896;28;20651;-82
2023/12/12 09:39:39;;;;;;;2.58;2.35;;;19.30;48.60;;;;;;5016378;28;20197;-79
2023/12/12 09:42:07;;;;;;;2.00;1.80;;;19.40;48.70;;;;;;5017025;28;20219;-80
2023/12/12 09:44:34;;;;;;;2.30;2.00;;;19.40;48.60;;;;;;5018957;28;20259;-80
2023/12/12 09:47:03;;;;;;;2.53;2.20;;;19.30;48.60;;;;;;5017343;28;20212;-79
2023/12/12 09:49:33;;;;;;;2.55;2.17;;;19.40;48.50;;;;;;5018873;28;20196;-79
2023/12/12 09:52:00;;;;;;;2.60;2.40;;;19.40;49.20;;;;;;5000865;28;20193;-79
2023/12/12 09:54:27;;;;;;;3.50;2.60;;;19.40;48.70;;;;;;5017556;28;20247;-79
2023/12/12 09:56:54;;;;;;;3.58;2.60;;;19.30;48.30;;;;;;5016479;28;20239;-79
2023/12/12 09:59:21;;;;;;;2.65;2.45;;;19.40;48.30;;;;;;5016637;28;20200;-80
2023/12/12 10:01:49;;;;;;;3.08;2.78;;;19.40;48.20;;;;;;5016318;28;20730;-79
2023/12/12 10:04:16;;;;;;;3.17;2.85;;;19.40;48.30;;;;;;5016668;28;20678;-79
2023/12/12 10:06:49;;;;;;;5.13;3.08;;;19.40;48.30;;;;;;5017209;28;20224;-78
2023/12/12 10:09:16;;;;;;;2.78;2.30;;;19.40;48.30;;;;;;5018434;28;20546;-79
2023/12/12 10:11:43;;;;;;;2.92;2.28;;;19.40;48.30;;;;;;5020232;28;20189;-81
2023/12/12 10:14:10;;;;;;;2.85;2.47;;;19.40;48.40;;;;;;5003453;28;20674;-80
2023/12/12 10:16:37;;;;;;;5.43;2.35;;;19.40;48.50;;;;;;5018705;28;20235;-80
2023/12/12 10:19:04;;;;;;;2.55;2.15;;;19.40;48.40;;;;;;5019296;28;20205;-82
2023/12/12 10:21:31;;;;;;;4.55;2.30;;;19.40;48.50;;;;;;5019273;28;20205;-80
2023/12/12 10:23:59;;;;;;;3.13;2.42;;;19.40;48.50;;;;;;5024845;28;20183;-81
2023/12/12 10:26:29;;;;;;;3.15;2.25;;;19.40;48.40;;;;;;5027534;28;20220;-80
2023/12/12 10:28:58;;;;;;;2.60;2.22;;;19.40;48.30;;;;;;5016686;28;20280;-80
2023/12/12 10:31:25;;;;;;;3.42;2.15;;;19.40;48.30;;;;;;5016876;28;20209;-81
2023/12/12 10:33:52;;;;;;;4.10;2.50;;;19.40;48.10;;;;;;5017618;28;20239;-80
2023/12/12 10:36:19;;;;;;;3.05;2.17;;;19.40;48.10;;;;;;5016831;28;20227;-81
2023/12/12 10:38:46;;;;;;;2.45;2.20;;;19.40;48.10;;;;;;5017044;28;20223;-82
2023/12/12 10:41:16;;;;;;;2.97;2.10;;;19.40;48.10;;;;;;5017362;28;20200;-83
2023/12/12 10:43:44;;;;;;;2.47;2.28;;;19.40;48.20;;;;;;5018483;28;20576;-84
2023/12/12 10:46:12;;;;;;;2.05;1.95;;;19.40;48.30;;;;;;5017731;28;20217;-83
2023/12/12 10:48:43;;;;;;;2.58;2.20;;;19.40;48.10;;;;;;5016416;28;20264;-83
2023/12/12 10:51:11;;;;;;;2.25;2.00;;;19.40;48.20;;;;;;5001339;28;20191;-83
2023/12/12 10:53:38;;;;;;;3.55;2.17;;;19.40;48.30;;;;;;5016807;28;20193;-81
2023/12/12 10:56:06;;;;;;;2.20;1.73;;;19.40;48.30;;;;;;5016606;28;20221;-81
2023/12/12 10:58:35;;;;;;;3.65;2.25;;;19.40;48.30;;;;;;5017900;28;20201;-82
2023/12/12 11:01:03;;;;;;;2.22;1.90;;;19.30;48.20;;;;;;5016004;28;20200;-80
2023/12/12 11:03:30;;;;;;;3.13;2.42;;;19.40;48.30;;;;;;5016066;28;20207;-78
2023/12/12 11:05:57;;;;;;;3.35;2.08;;;19.30;48.30;;;;;;5015304;28;20230;-81
2023/12/12 11:08:24;;;;;;;2.40;1.80;;;19.30;48.40;;;;;;5015893;28;20207;-82
2023/12/12 11:10:51;;;;;;;2.30;1.85;;;19.30;48.60;;;;;;5017073;28;20200;-82
2023/12/12 11:13:19;;;;;;;2.75;2.00;;;19.30;48.80;;;;;;5015897;28;20200;-81
2023/12/12 11:15:47;;;;;;;1.70;1.60;;;19.30;48.70;;;;;;5015566;28;20248;-80
2023/12/12 11:18:14;;;;;;;3.28;1.65;;;19.30;48.90;;;;;;5017261;28;20216;-81
2023/12/12 11:20:41;;;;;;;3.67;1.70;;;19.40;48.90;;;;;;5015306;28;20197;-79
2023/12/12 11:23:08;;;;;;;2.10;1.90;;;19.40;48.90;;;;;;5017330;28;20601;-79
2023/12/12 11:25:35;;;;;;;2.10;1.67;;;19.40;48.90;;;;;;5016815;28;20208;-81
2023/12/12 11:28:03;;;;;;;1.80;1.70;;;19.40;48.80;;;;;;5015845;28;20199;-81
2023/12/12 11:30:31;;;;;;;2.65;1.80;;;19.40;48.90;;;;;;5016586;28;20208;-78
2023/12/12 11:33:00;;;;;;;1.60;1.50;;;19.40;48.90;;;;;;5015191;28;20212;-78
2023/12/12 11:35:29;;;;;;;2.50;1.75;;;19.40;48.90;;;;;;5016278;28;20197;-79
2023/12/12 11:37:55;;;;;;;1.70;1.60;;;19.40;49.00;;;;;;5021949;28;20216;-79
2023/12/12 11:40:23;;;;;;;1.65;1.55;;;19.40;48.90;;;;;;5021438;28;20565;-80
2023/12/12 11:42:52;;;;;;;2.33;1.70;;;19.40;49.50;;;;;;5022067;28;20207;-79
2023/12/12 11:45:30;;;;;;;1.50;1.40;;;19.40;49.00;;;;;;5018457;28;20263;-79
2023/12/12 11:47:59;;;;;;;1.85;1.50;;;19.40;49.10;;;;;;5014461;28;20588;-79
2023/12/12 11:50:36;;;;;;;2.42;1.50;;;19.50;49.10;;;;;;5016214;28;20242;-78
2023/12/12 11:53:03;;;;;;;1.90;1.70;;;19.50;49.00;;;;;;5014775;28;20204;-79
2023/12/12 11:55:32;;;;;;;1.67;1.40;;;19.40;49.00;;;;;;5014774;28;20570;-80
2023/12/12 11:57:59;;;;;;;2.70;1.90;;;19.40;49.00;;;;;;5016359;28;20721;-81
2023/12/12 12:00:26;;;;;;;1.60;1.48;;;19.50;49.10;;;;;;5015576;28;20267;-81
2023/12/12 12:02:53;;;;;;;2.17;1.30;;;19.50;49.20;;;;;;5014620;28;20212;-82
2023/12/12 12:05:21;;;;;;;1.65;1.52;;;19.50;49.10;;;;;;5014246;28;20212;-80
2023/12/12 12:07:49;;;;;;;2.08;1.73;;;19.50;49.20;;;;;;5014534;28;20574;-79
2023/12/12 12:10:16;;;;;;;1.92;1.70;;;19.50;49.10;;;;;;5015417;28;20204;-79
2023/12/12 12:12:50;;;;;;;2.40;1.75;;;19.50;49.20;;;;;;5020846;28;20200;-80
2023/12/12 12:15:18;;;;;;;1.58;1.20;;;19.50;49.20;;;;;;5014449;28;20286;-80
2023/12/12 12:17:45;;;;;;;1.60;1.40;;;19.50;49.20;;;;;;4997467;28;20228;-79
2023/12/12 12:20:12;;;;;;;1.77;1.60;;;19.50;49.20;;;;;;5015163;28;20200;-79
2023/12/12 12:22:40;;;;;;;1.98;1.58;;;19.50;49.20;;;;;;5014941;28;20204;-79
2023/12/12 12:25:07;;;;;;;1.67;1.58;;;19.50;49.20;;;;;;5015350;28;20203;-79
2023/12/12 12:27:36;;;;;;;1.90;1.58;;;19.50;49.20;;;;;;5014483;28;20275;-80
2023/12/12 12:30:06;;;;;;;2.33;1.45;;;19.60;49.30;;;;;;5014996;28;20207;-80
2023/12/12 12:32:33;;;;;;;2.53;2.30;;;19.50;49.20;;;;;;5015630;28;20204;-79
2023/12/12 12:35:07;;;;;;;1.90;1.70;;;19.60;49.30;;;;;;5014441;28;20284;-78
2023/12/12 12:37:35;;;;;;;2.03;1.60;;;19.50;49.20;;;;;;4997373;28;20216;-78
2023/12/12 12:40:05;;;;;;;1.50;1.40;;;19.50;49.10;;;;;;5014245;28;20203;-79
2023/12/12 12:42:34;;;;;;;1.85;1.50;;;19.50;49.20;;;;;;5013771;28;20197;-80
2023/12/12 12:45:01;;;;;;;1.65;1.55;;;19.60;49.20;;;;;;5014139;28;20193;-80